sensor_id;sensor_type;location;lat;lon;timestamp;pressure;altitude;pressure_sealevel;temperature
76541;BMP280;65385;55.772;37.658;2023-06-22T00:00:25;100026.28;;;14.80
76541;BMP280;65385;55.772;37.658;2023-06-22T00:01:25;100022.34;;;14.77
76541;BMP280;65385;55.772;37.658;2023-06-22T00:02:26;100022.34;;;14.77
76541;BMP280;65385;55.772;37.658;2023-06-22T00:03:26;100023.41;;;14.76
76541;BMP280;65385;55.772;37.658;2023-06-22T00:04:27;100026.31;;;14.75
76541;BMP280;65385;55.772;37.658;2023-06-22T00:05:28;100022.91;;;14.74
76541;BMP280;65385;55.772;37.658;2023-06-22T00:06:28;100028.47;;;14.73
76541;BMP280;65385;55.772;37.658;2023-06-22T00:07:29;100026.09;;;14.71
76541;BMP280;65385;55.772;37.658;2023-06-22T00:08:29;100024.25;;;14.72
76541;BMP280;65385;55.772;37.658;2023-06-22T00:09:31;100019.28;;;14.70
76541;BMP280;65385;55.772;37.658;2023-06-22T00:10:32;100018.50;;;14.70
76541;BMP280;65385;55.772;37.658;2023-06-22T00:11:36;100021.38;;;14.68
76541;BMP280;65385;55.772;37.658;2023-06-22T00:12:37;100024.28;;;14.67
76541;BMP280;65385;55.772;37.658;2023-06-22T00:13:38;100020.84;;;14.66
76541;BMP280;65385;55.772;37.658;2023-06-22T00:14:39;100023.81;;;14.65
76541;BMP280;65385;55.772;37.658;2023-06-22T00:15:41;100028.28;;;14.64
76541;BMP280;65385;55.772;37.658;2023-06-22T00:16:42;100026.97;;;14.62
76541;BMP280;65385;55.772;37.658;2023-06-22T00:17:43;100016.97;;;14.59
76541;BMP280;65385;55.772;37.658;2023-06-22T00:18:43;100020.72;;;14.58
76541;BMP280;65385;55.772;37.658;2023-06-22T00:19:47;100026.00;;;14.58
76541;BMP280;65385;55.772;37.658;2023-06-22T00:20:48;100031.53;;;14.56
76541;BMP280;65385;55.772;37.658;2023-06-22T00:21:50;100027.31;;;14.55
76541;BMP280;65385;55.772;37.658;2023-06-22T00:22:54;100037.56;;;14.57
76541;BMP280;65385;55.772;37.658;2023-06-22T00:23:55;100028.88;;;14.56
76541;BMP280;65385;55.772;37.658;2023-06-22T00:24:57;100026.50;;;14.55
76541;BMP280;65385;55.772;37.658;2023-06-22T00:25:58;100030.72;;;14.56
76541;BMP280;65385;55.772;37.658;2023-06-22T00:26:58;100036.00;;;14.56
76541;BMP280;65385;55.772;37.658;2023-06-22T00:27:59;100032.56;;;14.55
76541;BMP280;65385;55.772;37.658;2023-06-22T00:29:01;100031.00;;;14.54
76541;BMP280;65385;55.772;37.658;2023-06-22T00:30:05;100025.22;;;14.52
76541;BMP280;65385;55.772;37.658;2023-06-22T00:31:06;100033.13;;;14.52
76541;BMP280;65385;55.772;37.658;2023-06-22T00:32:07;100022.59;;;14.52
76541;BMP280;65385;55.772;37.658;2023-06-22T00:33:08;100026.03;;;14.53
76541;BMP280;65385;55.772;37.658;2023-06-22T00:34:08;100026.78;;;14.53
76541;BMP280;65385;55.772;37.658;2023-06-22T00:35:10;100029.72;;;14.52
76541;BMP280;65385;55.772;37.658;2023-06-22T00:36:10;100024.44;;;14.52
76541;BMP280;65385;55.772;37.658;2023-06-22T00:37:13;100023.38;;;14.53
76541;BMP280;65385;55.772;37.658;2023-06-22T00:38:14;100026.31;;;14.51
76541;BMP280;65385;55.772;37.658;2023-06-22T00:39:16;100025.53;;;14.51
76541;BMP280;65385;55.772;37.658;2023-06-22T00:40:17;100019.22;;;14.47
76541;BMP280;65385;55.772;37.658;2023-06-22T00:41:22;100028.41;;;14.49
76541;BMP280;65385;55.772;37.658;2023-06-22T00:42:22;100019.72;;;14.49
76541;BMP280;65385;55.772;37.658;2023-06-22T00:43:23;100019.72;;;14.49
76541;BMP280;65385;55.772;37.658;2023-06-22T00:44:24;100018.94;;;14.48
76541;BMP280;65385;55.772;37.658;2023-06-22T00:45:26;100023.94;;;14.50
76541;BMP280;65385;55.772;37.658;2023-06-22T00:46:27;100021.31;;;14.50
76541;BMP280;65385;55.772;37.658;2023-06-22T00:47:28;100017.88;;;14.49
76541;BMP280;65385;55.772;37.658;2023-06-22T00:48:28;100011.56;;;14.50
76541;BMP280;65385;55.772;37.658;2023-06-22T00:49:29;100017.34;;;14.52
76541;BMP280;65385;55.772;37.658;2023-06-22T00:50:33;100024.16;;;14.53
76541;BMP280;65385;55.772;37.658;2023-06-22T00:51:37;100022.59;;;14.52
76541;BMP280;65385;55.772;37.658;2023-06-22T00:52:38;100022.59;;;14.52
76541;BMP280;65385;55.772;37.658;2023-06-22T00:53:44;100017.34;;;14.52
76541;BMP280;65385;55.772;37.658;2023-06-22T00:54:45;100015.50;;;14.53
76541;BMP280;65385;55.772;37.658;2023-06-22T00:55:46;100022.31;;;14.54
76541;BMP280;65385;55.772;37.658;2023-06-22T00:56:47;100022.59;;;14.52
76541;BMP280;65385;55.772;37.658;2023-06-22T00:57:49;100020.75;;;14.53
76541;BMP280;65385;55.772;37.658;2023-06-22T00:58:49;100023.09;;;14.54
76541;BMP280;65385;55.772;37.658;2023-06-22T00:59:53;100024.69;;;14.55
76541;BMP280;65385;55.772;37.658;2023-06-22T01:00:54;100025.47;;;14.56
76541;BMP280;65385;55.772;37.658;2023-06-22T01:01:55;100020.72;;;14.58
76541;BMP280;65385;55.772;37.658;2023-06-22T01:02:55;100019.16;;;14.57
76541;BMP280;65385;55.772;37.658;2023-06-22T01:03:56;100022.25;;;14.59
76541;BMP280;65385;55.772;37.658;2023-06-22T01:04:58;100024.59;;;14.60
76541;BMP280;65385;55.772;37.658;2023-06-22T01:06:10;100026.44;;;14.65
76541;BMP280;65385;55.772;37.658;2023-06-22T01:07:35;100022.97;;;14.69
76541;BMP280;65385;55.772;37.658;2023-06-22T01:08:59;100016.81;;;14.79
76541;BMP280;65385;55.772;37.658;2023-06-22T01:11:25;100022.50;;;15.10
76541;BMP280;65385;55.772;37.658;2023-06-22T01:12:30;100024.38;;;15.28
76541;BMP280;65385;55.772;37.658;2023-06-22T01:15:12;100032.81;;;15.67
76541;BMP280;65385;55.772;37.658;2023-06-22T01:16:26;100022.53;;;15.84
76541;BMP280;65385;55.772;37.658;2023-06-22T01:17:28;100021.44;;;16.04
76541;BMP280;65385;55.772;37.658;2023-06-22T01:18:31;100017.19;;;16.22
76541;BMP280;65385;55.772;37.658;2023-06-22T01:19:43;100023.19;;;16.41
76541;BMP280;65385;55.772;37.658;2023-06-22T01:20:45;100026.84;;;16.59
76541;BMP280;65385;55.772;37.658;2023-06-22T01:21:46;100031.56;;;16.75
76541;BMP280;65385;55.772;37.658;2023-06-22T01:23:07;100040.66;;;16.96
76541;BMP280;65385;55.772;37.658;2023-06-22T01:24:24;100039.72;;;17.15
76541;BMP280;65385;55.772;37.658;2023-06-22T01:25:57;100035.56;;;17.36
76541;BMP280;65385;55.772;37.658;2023-06-22T01:29:21;100019.06;;;17.97
76541;BMP280;65385;55.772;37.658;2023-06-22T01:30:23;100028.38;;;18.16
76541;BMP280;65385;55.772;37.658;2023-06-22T01:31:27;100025.81;;;18.34
76541;BMP280;65385;55.772;37.658;2023-06-22T01:32:33;100022.13;;;18.52
76541;BMP280;65385;55.772;37.658;2023-06-22T01:33:37;100022.66;;;18.71
76541;BMP280;65385;55.772;37.658;2023-06-22T01:34:40;100024.25;;;18.89
76541;BMP280;65385;55.772;37.658;2023-06-22T01:35:41;100022.91;;;19.09
76541;BMP280;65385;55.772;37.658;2023-06-22T01:36:43;100022.13;;;19.25
76541;BMP280;65385;55.772;37.658;2023-06-22T01:37:44;100026.63;;;19.42
76541;BMP280;65385;55.772;37.658;2023-06-22T01:38:45;100029.63;;;19.58
76541;BMP280;65385;55.772;37.658;2023-06-22T01:39:46;100030.22;;;19.72
76541;BMP280;65385;55.772;37.658;2023-06-22T01:40:49;100032.38;;;19.87
76541;BMP280;65385;55.772;37.658;2023-06-22T01:41:51;100023.44;;;20.00
76541;BMP280;65385;55.772;37.658;2023-06-22T01:42:54;100019.78;;;20.13
76541;BMP280;65385;55.772;37.658;2023-06-22T01:43:55;100025.69;;;20.27
76541;BMP280;65385;55.772;37.658;2023-06-22T01:44:57;100024.06;;;20.43
76541;BMP280;65385;55.772;37.658;2023-06-22T01:46:00;100026.63;;;20.60
76541;BMP280;65385;55.772;37.658;2023-06-22T01:47:02;100026.50;;;20.78
76541;BMP280;65385;55.772;37.658;2023-06-22T01:48:02;100019.53;;;20.94
76541;BMP280;65385;55.772;37.658;2023-06-22T01:49:04;100020.81;;;21.08
76541;BMP280;65385;55.772;37.658;2023-06-22T01:50:05;100018.81;;;21.26
76541;BMP280;65385;55.772;37.658;2023-06-22T01:51:07;100014.19;;;21.47
76541;BMP280;65385;55.772;37.658;2023-06-22T01:52:08;100026.75;;;21.59
76541;BMP280;65385;55.772;37.658;2023-06-22T01:53:09;100025.69;;;21.72
76541;BMP280;65385;55.772;37.658;2023-06-22T01:54:10;100023.50;;;21.86
76541;BMP280;65385;55.772;37.658;2023-06-22T01:55:10;100022.44;;;21.99
76541;BMP280;65385;55.772;37.658;2023-06-22T01:56:11;100025.56;;;22.13
76541;BMP280;65385;55.772;37.658;2023-06-22T01:57:12;100019.88;;;22.27
76541;BMP280;65385;55.772;37.658;2023-06-22T01:58:13;100025.63;;;22.41
76541;BMP280;65385;55.772;37.658;2023-06-22T01:59:32;100020.09;;;22.58
76541;BMP280;65385;55.772;37.658;2023-06-22T02:00:37;100021.56;;;22.83
76541;BMP280;65385;55.772;37.658;2023-06-22T02:01:44;100020.19;;;23.01
76541;BMP280;65385;55.772;37.658;2023-06-22T02:02:53;100020.66;;;23.19
76541;BMP280;65385;55.772;37.658;2023-06-22T02:04:03;100021.47;;;23.35
76541;BMP280;65385;55.772;37.658;2023-06-22T02:05:06;100024.00;;;23.44
76541;BMP280;65385;55.772;37.658;2023-06-22T02:06:17;100023.44;;;23.66
76541;BMP280;65385;55.772;37.658;2023-06-22T02:07:23;100011.94;;;23.81
76541;BMP280;65385;55.772;37.658;2023-06-22T02:08:30;100026.06;;;23.97
76541;BMP280;65385;55.772;37.658;2023-06-22T02:09:34;100023.66;;;24.08
76541;BMP280;65385;55.772;37.658;2023-06-22T02:10:37;100027.44;;;24.22
76541;BMP280;65385;55.772;37.658;2023-06-22T02:11:40;100020.84;;;24.35
76541;BMP280;65385;55.772;37.658;2023-06-22T02:12:42;100016.50;;;24.46
76541;BMP280;65385;55.772;37.658;2023-06-22T02:13:44;100013.25;;;24.57
76541;BMP280;65385;55.772;37.658;2023-06-22T02:14:46;100014.53;;;24.63
76541;BMP280;65385;55.772;37.658;2023-06-22T02:15:47;100009.31;;;24.70
76541;BMP280;65385;55.772;37.658;2023-06-22T02:16:50;100008.91;;;24.87
76541;BMP280;65385;55.772;37.658;2023-06-22T02:17:51;100009.91;;;24.98
76541;BMP280;65385;55.772;37.658;2023-06-22T02:18:52;100001.69;;;25.10
76541;BMP280;65385;55.772;37.658;2023-06-22T02:19:53;99995.72;;;25.16
76541;BMP280;65385;55.772;37.658;2023-06-22T02:20:54;99994.72;;;25.28
76541;BMP280;65385;55.772;37.658;2023-06-22T02:21:56;99992.50;;;25.30
76541;BMP280;65385;55.772;37.658;2023-06-22T02:22:57;99997.28;;;25.44
76541;BMP280;65385;55.772;37.658;2023-06-22T02:23:58;99991.72;;;25.52
76541;BMP280;65385;55.772;37.658;2023-06-22T02:24:59;99989.81;;;25.53
76541;BMP280;65385;55.772;37.658;2023-06-22T02:26:01;99999.53;;;25.64
76541;BMP280;65385;55.772;37.658;2023-06-22T02:27:02;99991.22;;;25.69
76541;BMP280;65385;55.772;37.658;2023-06-22T02:28:06;99982.50;;;25.76
76541;BMP280;65385;55.772;37.658;2023-06-22T02:29:07;99985.59;;;25.78
76541;BMP280;65385;55.772;37.658;2023-06-22T02:30:08;99984.09;;;25.80
76541;BMP280;65385;55.772;37.658;2023-06-22T02:31:10;99986.03;;;25.80
76541;BMP280;65385;55.772;37.658;2023-06-22T02:32:11;99982.06;;;25.74
76541;BMP280;65385;55.772;37.658;2023-06-22T02:33:13;99989.13;;;25.59
76541;BMP280;65385;55.772;37.658;2023-06-22T02:34:13;99986.22;;;25.45
76541;BMP280;65385;55.772;37.658;2023-06-22T02:35:18;99984.66;;;25.44
76541;BMP280;65385;55.772;37.658;2023-06-22T02:36:19;99986.06;;;25.35
76541;BMP280;65385;55.772;37.658;2023-06-22T02:37:22;99977.28;;;25.15
76541;BMP280;65385;55.772;37.658;2023-06-22T02:38:25;99989.00;;;25.07
76541;BMP280;65385;55.772;37.658;2023-06-22T02:39:27;99982.84;;;25.03
76541;BMP280;65385;55.772;37.658;2023-06-22T02:40:28;99974.91;;;25.10
76541;BMP280;65385;55.772;37.658;2023-06-22T02:41:31;99981.22;;;25.21
76541;BMP280;65385;55.772;37.658;2023-06-22T02:42:32;99976.03;;;25.32
76541;BMP280;65385;55.772;37.658;2023-06-22T02:43:32;99976.16;;;25.39
76541;BMP280;65385;55.772;37.658;2023-06-22T02:44:33;99977.25;;;25.34
76541;BMP280;65385;55.772;37.658;2023-06-22T02:45:33;99976.41;;;25.30
76541;BMP280;65385;55.772;37.658;2023-06-22T02:46:35;99977.03;;;25.23
76541;BMP280;65385;55.772;37.658;2023-06-22T02:47:36;99979.69;;;25.20
76541;BMP280;65385;55.772;37.658;2023-06-22T02:48:36;99969.47;;;25.06
76541;BMP280;65385;55.772;37.658;2023-06-22T02:49:37;99970.28;;;24.88
76541;BMP280;65385;55.772;37.658;2023-06-22T02:50:38;99981.38;;;24.67
76541;BMP280;65385;55.772;37.658;2023-06-22T02:51:44;99981.97;;;24.41
76541;BMP280;65385;55.772;37.658;2023-06-22T02:52:45;99983.59;;;24.11
76541;BMP280;65385;55.772;37.658;2023-06-22T02:53:47;99981.78;;;23.80
76541;BMP280;65385;55.772;37.658;2023-06-22T02:54:49;99982.03;;;23.60
76541;BMP280;65385;55.772;37.658;2023-06-22T02:55:50;99976.75;;;23.63
76541;BMP280;65385;55.772;37.658;2023-06-22T02:56:50;99973.84;;;23.84
76541;BMP280;65385;55.772;37.658;2023-06-22T02:57:52;99979.13;;;24.15
76541;BMP280;65385;55.772;37.658;2023-06-22T02:58:53;99967.16;;;24.44
76541;BMP280;65385;55.772;37.658;2023-06-22T02:59:53;99976.81;;;24.68
76541;BMP280;65385;55.772;37.658;2023-06-22T03:00:55;99974.94;;;24.91
76541;BMP280;65385;55.772;37.658;2023-06-22T03:01:56;99973.38;;;25.09
76541;BMP280;65385;55.772;37.658;2023-06-22T03:03:00;99965.09;;;25.17
76541;BMP280;65385;55.772;37.658;2023-06-22T03:04:01;99965.22;;;25.24
76541;BMP280;65385;55.772;37.658;2023-06-22T03:05:02;99964.78;;;25.45
76541;BMP280;65385;55.772;37.658;2023-06-22T03:06:04;99961.13;;;25.57
76541;BMP280;65385;55.772;37.658;2023-06-22T03:07:05;99962.22;;;25.78
76541;BMP280;65385;55.772;37.658;2023-06-22T03:08:07;99968.94;;;25.91
76541;BMP280;65385;55.772;37.658;2023-06-22T03:09:09;99963.41;;;26.07
76541;BMP280;65385;55.772;37.658;2023-06-22T03:10:11;99966.59;;;26.16
76541;BMP280;65385;55.772;37.658;2023-06-22T03:11:12;99964.63;;;26.43
76541;BMP280;65385;55.772;37.658;2023-06-22T03:12:12;99957.09;;;26.55
76541;BMP280;65385;55.772;37.658;2023-06-22T03:13:28;99962.41;;;26.89
76541;BMP280;65385;55.772;37.658;2023-06-22T03:14:28;99963.69;;;27.02
76541;BMP280;65385;55.772;37.658;2023-06-22T03:15:29;99962.97;;;27.05
76541;BMP280;65385;55.772;37.658;2023-06-22T03:16:32;99960.03;;;27.20
76541;BMP280;65385;55.772;37.658;2023-06-22T03:17:34;99965.41;;;27.20
76541;BMP280;65385;55.772;37.658;2023-06-22T03:18:35;99955.47;;;27.31
76541;BMP280;65385;55.772;37.658;2023-06-22T03:19:36;99956.97;;;27.25
76541;BMP280;65385;55.772;37.658;2023-06-22T03:20:36;99955.81;;;27.23
76541;BMP280;65385;55.772;37.658;2023-06-22T03:21:38;99963.19;;;27.33
76541;BMP280;65385;55.772;37.658;2023-06-22T03:22:39;99954.81;;;27.41
76541;BMP280;65385;55.772;37.658;2023-06-22T03:23:41;99953.25;;;27.40
76541;BMP280;65385;55.772;37.658;2023-06-22T03:24:42;99957.09;;;27.36
76541;BMP280;65385;55.772;37.658;2023-06-22T03:25:42;99951.78;;;27.50
76541;BMP280;65385;55.772;37.658;2023-06-22T03:26:45;99951.06;;;27.57
76541;BMP280;65385;55.772;37.658;2023-06-22T03:27:47;99952.66;;;27.65
76541;BMP280;65385;55.772;37.658;2023-06-22T03:28:49;99948.50;;;27.78
76541;BMP280;65385;55.772;37.658;2023-06-22T03:29:50;99944.31;;;27.91
76541;BMP280;65385;55.772;37.658;2023-06-22T03:30:50;99945.53;;;28.04
76541;BMP280;65385;55.772;37.658;2023-06-22T03:31:51;99947.09;;;28.08
76541;BMP280;65385;55.772;37.658;2023-06-22T03:32:52;99948.31;;;28.25
76541;BMP280;65385;55.772;37.658;2023-06-22T03:33:52;99951.44;;;28.34
76541;BMP280;65385;55.772;37.658;2023-06-22T03:34:53;99939.94;;;28.44
76541;BMP280;65385;55.772;37.658;2023-06-22T03:35:54;99940.72;;;28.52
76541;BMP280;65385;55.772;37.658;2023-06-22T03:36:55;99941.47;;;28.52
76541;BMP280;65385;55.772;37.658;2023-06-22T03:37:56;99953.38;;;28.48
76541;BMP280;65385;55.772;37.658;2023-06-22T03:38:57;99955.72;;;28.46
76541;BMP280;65385;55.772;37.658;2023-06-22T03:39:58;99948.38;;;28.39
76541;BMP280;65385;55.772;37.658;2023-06-22T03:40:58;99943.00;;;28.53
76541;BMP280;65385;55.772;37.658;2023-06-22T03:42:00;99942.63;;;28.65
76541;BMP280;65385;55.772;37.658;2023-06-22T03:43:00;99953.06;;;28.74
76541;BMP280;65385;55.772;37.658;2023-06-22T03:44:03;99948.09;;;28.83
76541;BMP280;65385;55.772;37.658;2023-06-22T03:45:04;99937.69;;;28.88
76541;BMP280;65385;55.772;37.658;2023-06-22T03:46:06;99940.78;;;28.97
76541;BMP280;65385;55.772;37.658;2023-06-22T03:47:07;99946.13;;;28.87
76541;BMP280;65385;55.772;37.658;2023-06-22T03:48:09;99944.59;;;28.86
76541;BMP280;65385;55.772;37.658;2023-06-22T03:49:11;99938.44;;;28.85
76541;BMP280;65385;55.772;37.658;2023-06-22T03:50:11;99936.13;;;28.77
76541;BMP280;65385;55.772;37.658;2023-06-22T03:51:12;99940.00;;;28.83
76541;BMP280;65385;55.772;37.658;2023-06-22T03:52:13;99940.34;;;28.74
76541;BMP280;65385;55.772;37.658;2023-06-22T03:53:13;99936.88;;;28.63
76541;BMP280;65385;55.772;37.658;2023-06-22T03:54:14;99932.28;;;28.81
76541;BMP280;65385;55.772;37.658;2023-06-22T03:55:14;99938.41;;;28.64
76541;BMP280;65385;55.772;37.658;2023-06-22T03:56:15;99935.31;;;28.83
76541;BMP280;65385;55.772;37.658;2023-06-22T03:57:20;99936.13;;;28.80
76541;BMP280;65385;55.772;37.658;2023-06-22T03:58:21;99940.72;;;28.90
76541;BMP280;65385;55.772;37.658;2023-06-22T03:59:22;99934.19;;;28.98
76541;BMP280;65385;55.772;37.658;2023-06-22T04:00:23;99925.34;;;29.12
76541;BMP280;65385;55.772;37.658;2023-06-22T04:01:24;99929.16;;;29.25
76541;BMP280;65385;55.772;37.658;2023-06-22T04:02:25;99928.38;;;29.35
76541;BMP280;65385;55.772;37.658;2023-06-22T04:03:25;99919.53;;;29.38
76541;BMP280;65385;55.772;37.658;2023-06-22T04:04:26;99926.44;;;29.46
76541;BMP280;65385;55.772;37.658;2023-06-22T04:05:26;99929.91;;;29.47
76541;BMP280;65385;55.772;37.658;2023-06-22T04:06:27;99930.25;;;29.56
76541;BMP280;65385;55.772;37.658;2023-06-22T04:07:28;99926.81;;;29.41
76541;BMP280;65385;55.772;37.658;2023-06-22T04:08:29;99919.13;;;29.47
76541;BMP280;65385;55.772;37.658;2023-06-22T04:09:30;99927.56;;;29.52
76541;BMP280;65385;55.772;37.658;2023-06-22T04:10:30;99922.59;;;29.37
76541;BMP280;65385;55.772;37.658;2023-06-22T04:11:31;99928.78;;;29.41
76541;BMP280;65385;55.772;37.658;2023-06-22T04:12:31;99922.53;;;29.61
76541;BMP280;65385;55.772;37.658;2023-06-22T04:13:32;99923.63;;;29.74
76541;BMP280;65385;55.772;37.658;2023-06-22T04:14:32;99924.06;;;29.69
76541;BMP280;65385;55.772;37.658;2023-06-22T04:15:33;99922.84;;;29.77
76541;BMP280;65385;55.772;37.658;2023-06-22T04:16:34;99922.13;;;29.70
76541;BMP280;65385;55.772;37.658;2023-06-22T04:17:35;99915.59;;;29.60
76541;BMP280;65385;55.772;37.658;2023-06-22T04:18:35;99922.53;;;29.51
76541;BMP280;65385;55.772;37.658;2023-06-22T04:19:36;99919.47;;;29.49
76541;BMP280;65385;55.772;37.658;2023-06-22T04:20:37;99920.66;;;29.30
76541;BMP280;65385;55.772;37.658;2023-06-22T04:21:37;99916.84;;;29.14
76541;BMP280;65385;55.772;37.658;2023-06-22T04:22:38;99913.81;;;28.97
76541;BMP280;65385;55.772;37.658;2023-06-22T04:23:38;99914.56;;;29.01
76541;BMP280;65385;55.772;37.658;2023-06-22T04:24:39;99918.03;;;28.74
76541;BMP280;65385;55.772;37.658;2023-06-22T04:25:39;99923.78;;;28.65
76541;BMP280;65385;55.772;37.658;2023-06-22T04:26:40;99919.19;;;28.73
76541;BMP280;65385;55.772;37.658;2023-06-22T04:27:42;99921.47;;;28.74
76541;BMP280;65385;55.772;37.658;2023-06-22T04:28:43;99919.56;;;28.85
76541;BMP280;65385;55.772;37.658;2023-06-22T04:29:51;99911.84;;;29.05
76541;BMP280;65385;55.772;37.658;2023-06-22T04:30:52;99912.94;;;29.43
76541;BMP280;65385;55.772;37.658;2023-06-22T04:31:53;99905.56;;;29.64
76541;BMP280;65385;55.772;37.658;2023-06-22T04:32:54;99915.84;;;29.91
76541;BMP280;65385;55.772;37.658;2023-06-22T04:33:59;99916.22;;;29.96
76541;BMP280;65385;55.772;37.658;2023-06-22T04:35:06;99915.53;;;29.78
76541;BMP280;65385;55.772;37.658;2023-06-22T04:36:07;99915.97;;;29.66
76541;BMP280;65385;55.772;37.658;2023-06-22T04:37:08;99912.81;;;29.78
76541;BMP280;65385;55.772;37.658;2023-06-22T04:38:09;99902.53;;;29.55
76541;BMP280;65385;55.772;37.658;2023-06-22T04:39:11;99910.63;;;29.52
76541;BMP280;65385;55.772;37.658;2023-06-22T04:40:12;99903.69;;;29.44
76541;BMP280;65385;55.772;37.658;2023-06-22T04:41:14;99902.91;;;29.54
76541;BMP280;65385;55.772;37.658;2023-06-22T04:42:27;99905.22;;;29.45
76541;BMP280;65385;55.772;37.658;2023-06-22T04:43:27;99900.66;;;29.21
76541;BMP280;65385;55.772;37.658;2023-06-22T04:44:31;99902.22;;;29.08
76541;BMP280;65385;55.772;37.658;2023-06-22T04:45:32;99915.34;;;28.91
76541;BMP280;65385;55.772;37.658;2023-06-22T04:46:34;99912.25;;;28.68
76541;BMP280;65385;55.772;37.658;2023-06-22T04:47:38;99901.84;;;28.49
76541;BMP280;65385;55.772;37.658;2023-06-22T04:48:39;99901.44;;;28.54
76541;BMP280;65385;55.772;37.658;2023-06-22T04:49:40;99901.44;;;28.44
76541;BMP280;65385;55.772;37.658;2023-06-22T04:50:43;99906.44;;;28.31
76541;BMP280;65385;55.772;37.658;2023-06-22T04:51:45;99907.16;;;28.14
76541;BMP280;65385;55.772;37.658;2023-06-22T04:52:45;99901.03;;;28.31
76541;BMP280;65385;55.772;37.658;2023-06-22T04:53:46;99915.25;;;28.25
76541;BMP280;65385;55.772;37.658;2023-06-22T04:54:47;99901.44;;;28.40
76541;BMP280;65385;55.772;37.658;2023-06-22T04:55:48;99903.75;;;28.45
76541;BMP280;65385;55.772;37.658;2023-06-22T04:56:49;99902.97;;;28.48
76541;BMP280;65385;55.772;37.658;2023-06-22T04:57:56;99905.69;;;28.55
76541;BMP280;65385;55.772;37.658;2023-06-22T04:58:57;99899.53;;;28.51
76541;BMP280;65385;55.772;37.658;2023-06-22T05:00:01;99902.63;;;28.67
76541;BMP280;65385;55.772;37.658;2023-06-22T05:01:06;99895.31;;;28.89
76541;BMP280;65385;55.772;37.658;2023-06-22T05:02:07;99900.72;;;29.03
76541;BMP280;65385;55.772;37.658;2023-06-22T05:03:08;99906.03;;;29.31
76541;BMP280;65385;55.772;37.658;2023-06-22T05:04:11;99901.75;;;29.51
76541;BMP280;65385;55.772;37.658;2023-06-22T05:05:15;99905.94;;;29.63
76541;BMP280;65385;55.772;37.658;2023-06-22T05:06:16;99902.53;;;29.55
76541;BMP280;65385;55.772;37.658;2023-06-22T05:07:16;99904.41;;;29.62
76541;BMP280;65385;55.772;37.658;2023-06-22T05:08:17;99904.09;;;29.35
76541;BMP280;65385;55.772;37.658;2023-06-22T05:09:18;99905.69;;;29.19
76541;BMP280;65385;55.772;37.658;2023-06-22T05:10:19;99910.34;;;28.90
76541;BMP280;65385;55.772;37.658;2023-06-22T05:11:20;99901.88;;;28.88
76541;BMP280;65385;55.772;37.658;2023-06-22T05:12:21;99913.00;;;28.58
76541;BMP280;65385;55.772;37.658;2023-06-22T05:13:21;99911.03;;;28.34
76541;BMP280;65385;55.772;37.658;2023-06-22T05:14:22;99903.72;;;28.24
76541;BMP280;65385;55.772;37.658;2023-06-22T05:15:23;99915.22;;;28.17
76541;BMP280;65385;55.772;37.658;2023-06-22T05:16:27;99911.72;;;28.06
76541;BMP280;65385;55.772;37.658;2023-06-22T05:17:27;99914.81;;;28.08
76541;BMP280;65385;55.772;37.658;2023-06-22T05:18:29;99913.28;;;28.07
76541;BMP280;65385;55.772;37.658;2023-06-22T05:19:30;99915.63;;;28.16
76541;BMP280;65385;55.772;37.658;2023-06-22T05:20:33;99910.63;;;28.25
76541;BMP280;65385;55.772;37.658;2023-06-22T05:21:37;99908.38;;;28.41
76541;BMP280;65385;55.772;37.658;2023-06-22T05:22:39;99908.38;;;28.55
76541;BMP280;65385;55.772;37.658;2023-06-22T05:23:39;99910.66;;;28.39
76541;BMP280;65385;55.772;37.658;2023-06-22T05:24:40;99918.72;;;28.36
76541;BMP280;65385;55.772;37.658;2023-06-22T05:25:41;99908.38;;;28.38
76541;BMP280;65385;55.772;37.658;2023-06-22T05:26:41;99907.63;;;28.62
76541;BMP280;65385;55.772;37.658;2023-06-22T05:27:42;99919.19;;;28.87
76541;BMP280;65385;55.772;37.658;2023-06-22T05:28:44;99906.88;;;28.89
76541;BMP280;65385;55.772;37.658;2023-06-22T05:29:48;99907.97;;;29.13
76541;BMP280;65385;55.772;37.658;2023-06-22T05:30:49;99911.06;;;29.29
76541;BMP280;65385;55.772;37.658;2023-06-22T05:31:49;99903.19;;;29.73
76541;BMP280;65385;55.772;37.658;2023-06-22T05:32:50;99897.25;;;30.10
76541;BMP280;65385;55.772;37.658;2023-06-22T05:33:54;99900.56;;;30.35
76541;BMP280;65385;55.772;37.658;2023-06-22T05:34:55;99898.59;;;30.39
76541;BMP280;65385;55.772;37.658;2023-06-22T05:35:55;99895.44;;;30.44
76541;BMP280;65385;55.772;37.658;2023-06-22T05:36:56;99898.38;;;30.67
76541;BMP280;65385;55.772;37.658;2023-06-22T05:37:59;99900.16;;;30.81
76541;BMP280;65385;55.772;37.658;2023-06-22T05:39:11;99901.25;;;30.91
76541;BMP280;65385;55.772;37.658;2023-06-22T05:40:13;99900.53;;;30.83
76541;BMP280;65385;55.772;37.658;2023-06-22T05:41:13;99894.84;;;30.74
76541;BMP280;65385;55.772;37.658;2023-06-22T05:42:14;99897.16;;;30.72
76541;BMP280;65385;55.772;37.658;2023-06-22T05:43:15;99896.44;;;30.72
76541;BMP280;65385;55.772;37.658;2023-06-22T05:44:16;99894.28;;;30.93
76541;BMP280;65385;55.772;37.658;2023-06-22T05:45:16;99895.72;;;31.01
76541;BMP280;65385;55.772;37.658;2023-06-22T05:46:18;99900.94;;;31.19
76541;BMP280;65385;55.772;37.658;2023-06-22T05:47:19;99899.50;;;31.44
76541;BMP280;65385;55.772;37.658;2023-06-22T05:48:19;99894.44;;;31.50
76541;BMP280;65385;55.772;37.658;2023-06-22T05:49:20;99894.94;;;31.68
76541;BMP280;65385;55.772;37.658;2023-06-22T05:50:22;99898.59;;;31.54
76541;BMP280;65385;55.772;37.658;2023-06-22T05:51:23;99900.72;;;31.70
76541;BMP280;65385;55.772;37.658;2023-06-22T05:52:24;99907.16;;;31.83
76541;BMP280;65385;55.772;37.658;2023-06-22T05:53:24;99900.50;;;32.14
76541;BMP280;65385;55.772;37.658;2023-06-22T05:54:27;99902.75;;;32.19
76541;BMP280;65385;55.772;37.658;2023-06-22T05:55:27;99897.03;;;31.87
76541;BMP280;65385;55.772;37.658;2023-06-22T05:56:28;99901.69;;;31.23